Time;durP1;ratioP1;P1;durP2;ratioP2;P2;SDS_P1;SDS_P2;PMS_P1;PMS_P2;Temp;Humidity;BMP_temperature;BMP_pressure;BME280_temperature;BME280_humidity;BME280_pressure;Samples;Min_cycle;Max_cycle;Signal;HPM_P1;HPM_P2
2021/08/04 00:02:02;;;;;;;;;;;;;;;22.58;86.51;99613.88;4993640;28;835;-62
2021/08/04 00:04:28;;;;;;;;;;;;;;;22.51;86.63;99617.09;4993179;28;807;-62
2021/08/04 00:06:55;;;;;;;;;;;;;;;22.41;86.76;99613.63;4993330;28;823;-62
2021/08/04 00:09:22;;;;;;;;;;;;;;;22.31;86.81;99611.41;4993435;28;886;-62
2021/08/04 00:11:47;;;;;;;;;;;;;;;22.22;86.96;99613.06;4993410;28;890;-63
2021/08/04 00:14:14;;;;;;;;;;;;;;;22.15;87.25;99605.00;4993566;28;1950;-62
2021/08/04 00:16:40;;;;;;;;;;;;;;;22.11;87.26;99612.88;4992905;28;1456;-62
2021/08/04 00:19:07;;;;;;;;;;;;;;;22.07;87.35;99617.91;4992959;28;810;-62
2021/08/04 00:21:34;;;;;;;;;;;;;;;22.03;87.09;99620.16;4992839;28;831;-62
2021/08/04 00:24:01;;;;;;;;;;;;;;;22.02;87.42;99618.59;4992917;28;842;-63
2021/08/04 00:26:27;;;;;;;;;;;;;;;22.02;87.45;99607.34;4992637;28;865;-63
2021/08/04 00:28:54;;;;;;;;;;;;;;;21.98;87.19;99621.63;4992773;28;803;-62
2021/08/04 00:31:21;;;;;;;;;;;;;;;21.90;87.46;99617.63;4992726;28;839;-63
2021/08/04 00:33:47;;;;;;;;;;;;;;;21.89;87.61;99629.38;4991329;28;1174;-63
2021/08/04 00:36:14;;;;;;;;;;;;;;;21.90;87.52;99630.94;4992577;28;1943;-62
2021/08/04 00:38:41;;;;;;;;;;;;;;;21.97;87.83;99627.72;4992606;28;815;-63
2021/08/04 00:41:08;;;;;;;;;;;;;;;22.07;87.90;99623.53;4992590;28;917;-63
2021/08/04 00:43:35;;;;;;;;;;;;;;;22.14;87.45;99625.94;4992509;28;831;-63
2021/08/04 00:46:02;;;;;;;;;;;;;;;22.19;87.54;99630.13;4992523;28;827;-63
2021/08/04 00:48:28;;;;;;;;;;;;;;;22.20;87.25;99629.63;4992444;28;838;-63
2021/08/04 00:50:55;;;;;;;;;;;;;;;22.22;87.13;99629.97;4992492;28;871;-63
2021/08/04 00:53:25;;;;;;;;;;;;;;;22.22;87.37;99638.41;4992381;28;799;-63
2021/08/04 00:55:53;;;;;;;;;;;;;;;22.18;87.24;99634.97;4992215;28;1949;-63
2021/08/04 00:58:21;;;;;;;;;;;;;;;22.11;87.31;99629.75;4992350;28;835;-62
2021/08/04 01:00:56;;;;;;;;;;;;;;;22.00;87.13;99629.56;4992538;28;889;-62
2021/08/04 01:03:22;;;;;;;;;;;;;;;21.91;87.45;99632.47;4992514;28;870;-62
2021/08/04 01:05:54;;;;;;;;;;;;;;;21.79;87.17;99623.06;4992501;28;835;-62
2021/08/04 01:08:27;;;;;;;;;;;;;;;21.69;87.55;99622.38;4992243;28;847;-62
2021/08/04 01:10:54;;;;;;;;;;;;;;;21.58;87.29;99625.75;4992236;28;842;-62
2021/08/04 01:13:40;;;;;;;;;;;;;;;21.54;87.60;99627.22;4992238;28;803;-62
2021/08/04 01:16:07;;;;;;;;;;;;;;;21.46;87.51;99626.03;4991281;28;1886;-62
2021/08/04 01:18:41;;;;;;;;;;;;;;;21.36;87.83;99626.09;4991497;28;795;-62
2021/08/04 01:21:10;;;;;;;;;;;;;;;21.26;87.33;99632.28;4991364;28;890;-62
2021/08/04 01:23:44;;;;;;;;;;;;;;;21.18;87.66;99637.47;4991240;28;858;-63
2021/08/04 01:26:31;;;;;;;;;;;;;;;21.12;88.11;99628.16;4991312;28;818;-62
2021/08/04 01:28:59;;;;;;;;;;;;;;;21.16;88.33;99623.88;4984316;28;1014;-62
2021/08/04 01:31:28;;;;;;;;;;;;;;;21.18;88.24;99620.59;4991215;28;867;-62
2021/08/04 01:33:57;;;;;;;;;;;;;;;21.16;88.44;99620.31;4991152;28;836;-62
2021/08/04 01:36:24;;;;;;;;;;;;;;;21.15;88.48;99618.78;4991071;28;1914;-62
2021/08/04 01:38:52;;;;;;;;;;;;;;;21.17;88.57;99633.13;4991081;28;874;-63
2021/08/04 01:41:19;;;;;;;;;;;;;;;21.10;88.22;99639.88;4991095;28;878;-62
2021/08/04 01:43:47;;;;;;;;;;;;;;;20.99;88.01;99632.00;4991089;28;822;-62
2021/08/04 01:46:14;;;;;;;;;;;;;;;20.88;88.08;99634.56;4991018;28;827;-63
2021/08/04 01:48:42;;;;;;;;;;;;;;;20.78;88.41;99631.03;4991020;28;893;-63
2021/08/04 01:51:13;;;;;;;;;;;;;;;20.74;88.62;99622.00;4991121;28;882;-63
2021/08/04 01:53:40;;;;;;;;;;;;;;;20.76;88.79;99627.13;4991423;28;850;-62
2021/08/04 01:56:07;;;;;;;;;;;;;;;20.74;88.53;99615.59;4990994;28;1899;-63
2021/08/04 01:58:34;;;;;;;;;;;;;;;20.70;88.60;99620.63;4991075;28;819;-63
2021/08/04 02:01:00;;;;;;;;;;;;;;;20.71;88.91;99631.38;4991060;28;835;-63
2021/08/04 02:03:27;;;;;;;;;;;;;;;20.75;88.79;99637.59;4991172;28;870;-63
2021/08/04 02:05:53;;;;;;;;;;;;;;;20.81;89.08;99634.91;4991224;28;803;-63
2021/08/04 02:08:43;;;;;;;;;;;;;;;20.78;88.83;99622.59;4991073;28;846;-62
2021/08/04 02:11:22;;;;;;;;;;;;;;;20.74;88.89;99624.00;4986472;28;1323;-62
2021/08/04 02:13:49;;;;;;;;;;;;;;;20.73;88.99;99626.06;4994041;28;951;-63
2021/08/04 02:16:26;;;;;;;;;;;;;;;20.74;89.20;99624.81;4853056;28;4106841;-63
2021/08/04 02:19:11;;;;;;;;;;;;;;;20.77;89.18;99625.88;4995239;28;850;-62
2021/08/04 02:21:41;;;;;;;;;;;;;;;20.77;88.98;99628.69;4995166;28;901;-63
2021/08/04 02:24:10;;;;;;;;;;;;;;;20.82;88.81;99636.47;4995075;28;851;-63
2021/08/04 02:26:38;;;;;;;;;;;;;;;20.88;89.02;99645.78;4995004;28;842;-63
2021/08/04 02:29:06;;;;;;;;;;;;;;;20.93;88.74;99638.72;4995012;28;871;-63
2021/08/04 02:31:33;;;;;;;;;;;;;;;20.94;88.41;99638.25;4994949;28;815;-62
2021/08/04 02:34:01;;;;;;;;;;;;;;;20.95;88.88;99648.25;4994971;28;799;-62
2021/08/04 02:36:27;;;;;;;;;;;;;;;20.98;88.83;99650.09;4994740;28;1906;-63
2021/08/04 02:38:56;;;;;;;;;;;;;;;21.00;88.48;99653.19;4995067;28;870;-62
2021/08/04 02:41:23;;;;;;;;;;;;;;;21.01;88.41;99645.53;4994779;28;874;-63
2021/08/04 02:43:50;;;;;;;;;;;;;;;21.01;88.54;99645.53;4994670;28;909;-63
2021/08/04 02:46:16;;;;;;;;;;;;;;;21.01;88.55;99649.13;4994649;28;823;-62
2021/08/04 02:48:42;;;;;;;;;;;;;;;21.03;88.54;99653.50;4994727;28;827;-63
2021/08/04 02:51:09;;;;;;;;;;;;;;;21.03;88.31;99653.50;4994673;28;866;-62
2021/08/04 02:53:36;;;;;;;;;;;;;;;21.04;88.59;99649.44;4994426;28;948;-63
2021/08/04 02:56:04;;;;;;;;;;;;;;;21.04;88.66;99644.59;4994456;28;1943;-62
2021/08/04 02:58:36;;;;;;;;;;;;;;;21.05;88.76;99639.75;4994512;28;922;-63
2021/08/04 03:01:04;;;;;;;;;;;;;;;21.00;88.69;99646.81;4993089;28;882;-63
2021/08/04 03:03:31;;;;;;;;;;;;;;;20.93;88.62;99647.16;4994328;28;890;-63
2021/08/04 03:05:57;;;;;;;;;;;;;;;20.85;88.78;99641.13;4994364;28;862;-62
2021/08/04 03:08:24;;;;;;;;;;;;;;;20.81;88.63;99646.16;4994203;28;899;-63
2021/08/04 03:10:51;;;;;;;;;;;;;;;20.79;88.96;99649.44;4994236;28;850;-63
2021/08/04 03:13:18;;;;;;;;;;;;;;;20.83;89.37;99652.06;4994214;28;853;-63
2021/08/04 03:15:44;;;;;;;;;;;;;;;20.92;89.24;99652.00;4993876;28;1886;-63
2021/08/04 03:18:11;;;;;;;;;;;;;;;21.00;89.33;99650.41;4994056;28;858;-63
2021/08/04 03:20:37;;;;;;;;;;;;;;;21.06;88.97;99653.34;4992793;28;1394;-63
2021/08/04 03:23:03;;;;;;;;;;;;;;;21.11;89.00;99649.09;4992702;28;843;-63
2021/08/04 03:25:30;;;;;;;;;;;;;;;21.13;88.96;99649.38;4993933;28;819;-63
2021/08/04 03:27:57;;;;;;;;;;;;;;;21.15;89.02;99647.63;4993868;28;851;-63
2021/08/04 03:30:24;;;;;;;;;;;;;;;21.18;88.96;99649.47;4993783;28;859;-63
2021/08/04 03:32:51;;;;;;;;;;;;;;;21.25;89.05;99651.16;4993801;28;846;-63
2021/08/04 03:35:18;;;;;;;;;;;;;;;21.36;89.21;99651.38;4993663;28;1910;-63
2021/08/04 03:37:45;;;;;;;;;;;;;;;21.46;89.02;99654.91;4993760;28;878;-62
2021/08/04 03:40:12;;;;;;;;;;;;;;;21.54;89.03;99656.09;4993670;28;807;-62
2021/08/04 03:42:39;;;;;;;;;;;;;;;21.59;88.80;99651.84;4993714;28;869;-63
2021/08/04 03:45:06;;;;;;;;;;;;;;;21.62;88.71;99659.31;4993535;28;869;-63
2021/08/04 03:47:33;;;;;;;;;;;;;;;21.68;88.52;99659.41;4993813;28;890;-62
2021/08/04 03:49:59;;;;;;;;;;;;;;;21.72;88.49;99657.19;4993501;28;807;-63
2021/08/04 03:52:26;;;;;;;;;;;;;;;21.77;88.55;99670.59;4993320;28;795;-62
2021/08/04 03:54:53;;;;;;;;;;;;;;;21.86;88.36;99676.13;4993338;28;1882;-62
2021/08/04 03:57:19;;;;;;;;;;;;;;;21.93;88.05;99661.66;4993318;28;825;-63
2021/08/04 03:59:45;;;;;;;;;;;;;;;22.03;87.93;99667.97;4993343;28;962;-62
2021/08/04 04:02:11;;;;;;;;;;;;;;;22.10;87.86;99667.59;4993186;28;838;-62
2021/08/04 04:04:37;;;;;;;;;;;;;;;22.16;87.50;99670.50;4993275;28;858;-62
2021/08/04 04:07:05;;;;;;;;;;;;;;;22.24;87.39;99682.97;4993315;28;827;-62
2021/08/04 04:09:31;;;;;;;;;;;;;;;22.34;87.35;99683.63;4993099;28;866;-63
2021/08/04 04:11:58;;;;;;;;;;;;;;;22.45;87.21;99689.44;4993032;28;963;-62
2021/08/04 04:14:25;;;;;;;;;;;;;;;22.59;86.94;99680.19;4993078;28;1918;-62
2021/08/04 04:16:52;;;;;;;;;;;;;;;22.76;86.85;99685.28;4992819;28;1476;-62
2021/08/04 04:19:18;;;;;;;;;;;;;;;22.93;86.40;99680.66;4993027;28;870;-62
2021/08/04 04:21:45;;;;;;;;;;;;;;;23.11;85.96;99690.97;4992751;28;839;-63
2021/08/04 04:24:12;;;;;;;;;;;;;;;23.27;85.21;99686.78;4992941;28;823;-62
2021/08/04 04:26:39;;;;;;;;;;;;;;;23.43;84.93;99689.06;4992874;28;851;-63
2021/08/04 04:29:05;;;;;;;;;;;;;;;23.64;84.83;99680.53;4992802;28;842;-63
2021/08/04 04:31:32;;;;;;;;;;;;;;;23.91;83.90;99684.19;4992817;28;816;-62
2021/08/04 04:33:58;;;;;;;;;;;;;;;24.17;83.17;99693.41;4992372;28;878;-63
2021/08/04 04:36:25;;;;;;;;;;;;;;;24.49;82.65;99699.09;4993045;28;1923;-62
2021/08/04 04:38:51;;;;;;;;;;;;;;;24.84;81.58;99698.84;4992888;28;824;-62
2021/08/04 04:41:18;;;;;;;;;;;;;;;25.15;80.36;99705.69;4992827;28;877;-62
2021/08/04 04:43:44;;;;;;;;;;;;;;;25.14;80.13;99715.47;4992850;28;803;-62
2021/08/04 04:46:10;;;;;;;;;;;;;;;25.00;79.96;99713.59;4992633;28;850;-63
2021/08/04 04:48:38;;;;;;;;;;;;;;;24.91;80.11;99710.97;4992733;28;913;-63
2021/08/04 04:51:04;;;;;;;;;;;;;;;24.82;80.37;99714.78;4992905;28;771;-63
2021/08/04 04:53:31;;;;;;;;;;;;;;;24.82;80.29;99707.06;4992432;28;870;-62
2021/08/04 04:55:58;;;;;;;;;;;;;;;25.08;79.88;99714.66;4992224;28;1894;-63
2021/08/04 04:58:24;;;;;;;;;;;;;;;25.63;78.58;99715.47;4992362;28;839;-62
2021/08/04 05:00:51;;;;;;;;;;;;;;;26.03;76.84;99705.03;4992318;28;820;-62
2021/08/04 05:03:18;;;;;;;;;;;;;;;26.40;75.70;99718.19;4992293;28;826;-62
2021/08/04 05:05:45;;;;;;;;;;;;;;;26.82;74.25;99722.84;4992263;28;787;-62
2021/08/04 05:16:00;;;;;;;;;;;;;;;28.12;69.40;99725.19;5061456;23;1983;-62
2021/08/04 05:18:27;;;;;;;;;;;;;;;28.02;68.99;99735.34;5011771;28;874;-62
2021/08/04 05:20:54;;;;;;;;;;;;;;;27.92;69.17;99731.25;5011796;28;838;-62
2021/08/04 05:23:20;;;;;;;;;;;;;;;28.11;68.62;99735.00;5011727;28;830;-62
2021/08/04 05:25:47;;;;;;;;;;;;;;;28.28;67.41;99737.75;5011736;28;830;-62
2021/08/04 05:28:14;;;;;;;;;;;;;;;28.80;66.96;99733.19;5011670;28;826;-62
2021/08/04 05:30:40;;;;;;;;;;;;;;;29.82;64.29;99741.38;5011652;28;830;-62
2021/08/04 05:33:07;;;;;;;;;;;;;;;30.35;61.48;99735.97;5011756;28;924;-63
2021/08/04 05:35:34;;;;;;;;;;;;;;;30.36;60.55;99736.72;5011585;28;1973;-63
2021/08/04 05:38:00;;;;;;;;;;;;;;;30.11;61.58;99737.59;5011527;28;884;-63
2021/08/04 05:40:27;;;;;;;;;;;;;;;30.76;60.05;99725.44;5011911;28;850;-62
2021/08/04 05:42:54;;;;;;;;;;;;;;;30.63;59.66;99731.88;5011542;28;870;-63
2021/08/04 05:45:20;;;;;;;;;;;;;;;30.98;59.14;99736.44;5011479;28;806;-62
2021/08/04 05:47:47;;;;;;;;;;;;;;;31.19;58.33;99738.66;5015318;28;826;-61
2021/08/04 05:50:13;;;;;;;;;;;;;;;31.00;58.90;99739.53;5015312;28;869;-63
2021/08/04 05:52:39;;;;;;;;;;;;;;;32.14;56.64;99747.34;5015298;28;823;-63
2021/08/04 05:55:07;;;;;;;;;;;;;;;33.42;53.10;99746.69;5015144;28;1956;-63
2021/08/04 05:57:34;;;;;;;;;;;;;;;34.32;50.75;99750.50;5015212;28;992;-63
2021/08/04 06:00:00;;;;;;;;;;;;;;;35.17;48.89;99757.03;5015250;28;874;-63
2021/08/04 06:02:27;;;;;;;;;;;;;;;36.02;46.86;99762.53;5015175;28;913;-63
2021/08/04 06:04:53;;;;;;;;;;;;;;;36.44;45.20;99749.63;5015128;28;834;-63
2021/08/04 06:07:20;;;;;;;;;;;;;;;36.69;43.78;99749.66;5014986;28;834;-63
2021/08/04 06:09:47;;;;;;;;;;;;;;;36.77;43.13;99751.09;5015042;28;874;-63
2021/08/04 06:12:13;;;;;;;;;;;;;;;36.74;43.17;99751.50;5014947;28;866;-63
2021/08/04 06:14:40;;;;;;;;;;;;;;;36.72;42.48;99752.13;5014577;28;1914;-63
2021/08/04 06:17:07;;;;;;;;;;;;;;;36.92;41.82;99744.44;5014898;28;858;-63
2021/08/04 06:19:33;;;;;;;;;;;;;;;36.99;41.85;99749.34;5014868;28;834;-63
2021/08/04 06:21:59;;;;;;;;;;;;;;;37.13;41.19;99746.19;5014706;28;872;-63
2021/08/04 06:24:26;;;;;;;;;;;;;;;36.54;41.92;99736.09;5014723;28;846;-63
2021/08/04 06:26:54;;;;;;;;;;;;;;;36.61;42.01;99734.50;5014665;28;878;-61
2021/08/04 06:29:22;;;;;;;;;;;;;;;36.94;41.34;99735.97;5014531;28;826;-63
2021/08/04 06:31:48;;;;;;;;;;;;;;;37.11;40.45;99734.50;5014646;28;838;-63
2021/08/04 06:34:15;;;;;;;;;;;;;;;37.35;40.06;99735.78;5014519;28;802;-63
2021/08/04 06:36:42;;;;;;;;;;;;;;;37.65;39.55;99731.03;5013016;28;2201;-61
2021/08/04 06:39:08;;;;;;;;;;;;;;;38.01;38.96;99730.34;5014502;28;857;-63
2021/08/04 06:41:35;;;;;;;;;;;;;;;37.97;38.26;99733.66;5014402;28;893;-63
2021/08/04 06:44:01;;;;;;;;;;;;;;;37.83;38.60;99731.72;5012933;28;1354;-63
2021/08/04 06:46:36;;;;;;;;;;;;;;;37.62;38.57;99735.88;5014300;28;846;-63
2021/08/04 06:49:03;;;;;;;;;;;;;;;37.58;38.41;99736.28;5014262;28;834;-63
2021/08/04 06:51:30;;;;;;;;;;;;;;;37.65;38.42;99746.19;5014111;28;861;-63
2021/08/04 06:53:56;;;;;;;;;;;;;;;37.84;37.87;99741.94;5014296;28;807;-63
2021/08/04 06:56:23;;;;;;;;;;;;;;;37.86;37.83;99736.31;5013875;28;1953;-63
2021/08/04 06:58:50;;;;;;;;;;;;;;;37.91;37.99;99741.06;5013868;28;868;-64
2021/08/04 07:01:16;;;;;;;;;;;;;;;38.14;37.45;99735.00;5014007;28;835;-63
2021/08/04 07:03:43;;;;;;;;;;;;;;;38.49;36.59;99743.47;5014078;28;799;-62
2021/08/04 07:06:10;;;;;;;;;;;;;;;38.26;37.09;99740.94;5014106;28;823;-64
2021/08/04 07:08:37;;;;;;;;;;;;;;;38.49;36.71;99752.16;5013895;28;829;-64
2021/08/04 07:11:05;;;;;;;;;;;;;;;38.33;36.67;99746.63;5013898;28;889;-63
2021/08/04 07:13:32;;;;;;;;;;;;;;;38.44;36.65;99747.44;5013712;28;841;-63
2021/08/04 07:15:59;;;;;;;;;;;;;;;38.56;36.12;99754.94;5013425;28;1902;-64
2021/08/04 07:18:26;;;;;;;;;;;;;;;38.60;36.45;99748.72;5013786;28;866;-63
2021/08/04 07:20:52;;;;;;;;;;;;;;;39.01;36.00;99749.00;5012385;28;1332;-64
2021/08/04 07:23:19;;;;;;;;;;;;;;;39.42;34.90;99754.25;5013631;28;794;-63
2021/08/04 07:25:45;;;;;;;;;;;;;;;39.71;34.07;99757.88;5013583;28;903;-63
2021/08/04 07:28:12;;;;;;;;;;;;;;;39.76;34.32;99753.16;5013544;28;834;-63
2021/08/04 07:30:39;;;;;;;;;;;;;;;39.55;33.89;99756.66;5013553;28;906;-63
2021/08/04 07:33:06;;;;;;;;;;;;;;;39.33;34.31;99747.81;5013435;28;818;-63
2021/08/04 07:35:33;;;;;;;;;;;;;;;39.27;34.22;99744.47;5013322;28;1906;-64
2021/08/04 07:37:59;;;;;;;;;;;;;;;38.92;34.63;99746.81;5013352;28;852;-63
2021/08/04 07:40:26;;;;;;;;;;;;;;;39.15;34.32;99749.31;5013307;28;865;-63
2021/08/04 07:42:53;;;;;;;;;;;;;;;39.61;33.56;99745.56;5013301;28;842;-63
2021/08/04 07:45:20;;;;;;;;;;;;;;;39.74;33.24;99744.31;5013123;28;849;-63
2021/08/04 07:47:47;;;;;;;;;;;;;;;39.65;33.18;99736.41;5013196;28;877;-63
2021/08/04 07:50:14;;;;;;;;;;;;;;;40.15;32.78;99735.72;5013163;28;913;-63
2021/08/04 07:52:40;;;;;;;;;;;;;;;40.56;31.70;99736.47;5011756;28;818;-63
2021/08/04 07:55:07;;;;;;;;;;;;;;;40.67;30.94;99729.28;5012957;28;1894;-63
2021/08/04 07:57:34;;;;;;;;;;;;;;;40.74;30.82;99737.03;5012909;28;810;-63
2021/08/04 08:00:01;;;;;;;;;;;;;;;40.91;31.43;99727.31;5013227;28;865;-63
2021/08/04 08:02:28;;;;;;;;;;;;;;;41.04;30.77;99725.25;5012868;28;937;-63
2021/08/04 08:04:54;;;;;;;;;;;;;;;41.12;29.95;99722.88;5012836;28;926;-63
2021/08/04 08:07:22;;;;;;;;;;;;;;;40.22;31.04;99723.19;5012811;28;921;-63
2021/08/04 08:09:48;;;;;;;;;;;;;;;39.67;32.70;99731.56;5010829;28;1433;-63
2021/08/04 08:12:14;;;;;;;;;;;;;;;40.11;31.66;99718.81;5012718;28;849;-63
2021/08/04 08:14:41;;;;;;;;;;;;;;;40.22;31.19;99726.09;5010978;28;1957;-63
2021/08/04 08:17:07;;;;;;;;;;;;;;;40.23;31.61;99730.50;5012955;28;869;-63
2021/08/04 08:19:34;;;;;;;;;;;;;;;39.96;30.76;99719.16;5012591;28;890;-63
2021/08/04 08:22:00;;;;;;;;;;;;;;;40.25;30.88;99716.19;5012557;28;869;-63
2021/08/04 08:24:27;;;;;;;;;;;;;;;40.41;30.74;99714.47;5012480;28;861;-63
2021/08/04 08:26:54;;;;;;;;;;;;;;;40.24;30.68;99708.09;5012447;28;810;-63
2021/08/04 08:29:20;;;;;;;;;;;;;;;39.66;30.57;99714.81;5012745;28;803;-63
2021/08/04 08:31:47;;;;;;;;;;;;;;;39.19;31.77;99706.28;5011057;28;1215;-63
2021/08/04 08:34:14;;;;;;;;;;;;;;;39.50;30.88;99691.25;5012471;28;901;-63
2021/08/04 08:36:41;;;;;;;;;;;;;;;40.00;29.73;99705.75;5012313;28;1906;-63
2021/08/04 08:39:08;;;;;;;;;;;;;;;40.07;29.24;99706.19;5012180;28;966;-63
2021/08/04 08:41:35;;;;;;;;;;;;;;;39.75;29.55;99708.22;5012204;28;846;-63
2021/08/04 08:44:02;;;;;;;;;;;;;;;39.55;29.80;99711.16;5012205;28;869;-63
2021/08/04 08:46:31;;;;;;;;;;;;;;;39.76;29.64;99707.63;5012209;28;986;-63
2021/08/04 08:48:57;;;;;;;;;;;;;;;40.04;28.92;99698.75;5012186;28;1004;-63
2021/08/04 08:51:25;;;;;;;;;;;;;;;40.09;28.88;99695.53;5010798;28;1268;-63
2021/08/04 08:53:52;;;;;;;;;;;;;;;39.76;28.78;99701.84;5012089;28;807;-63
2021/08/04 08:56:19;;;;;;;;;;;;;;;40.03;28.76;99694.31;5010677;28;1947;-63
2021/08/04 08:58:47;;;;;;;;;;;;;;;40.01;27.84;99695.72;5012021;28;807;-63
2021/08/04 09:01:13;;;;;;;;;;;;;;;39.99;28.46;99686.88;5012022;28;901;-63
2021/08/04 09:03:40;;;;;;;;;;;;;;;40.13;28.20;99686.38;5011939;28;798;-62
2021/08/04 09:06:06;;;;;;;;;;;;;;;40.26;28.22;99677.16;5011946;28;830;-63
2021/08/04 09:08:34;;;;;;;;;;;;;;;40.15;28.42;99678.59;5011911;28;857;-63
2021/08/04 09:11:30;;;;;;;;;;;;;;;39.91;27.84;99677.63;5011865;28;881;-62
2021/08/04 09:14:04;;;;;;;;;;;;;;;39.48;28.80;99683.19;4999022;28;1481;-64
2021/08/04 09:16:33;;;;;;;;;;;;;;;39.33;29.99;99675.56;5011542;28;1886;-63
2021/08/04 09:19:00;;;;;;;;;;;;;;;39.14;30.71;99684.25;5012112;28;818;-63
2021/08/04 09:21:26;;;;;;;;;;;;;;;39.00;30.84;99681.03;5015847;28;850;-62
2021/08/04 09:23:54;;;;;;;;;;;;;;;39.31;30.96;99674.66;5016809;28;831;-62
2021/08/04 09:26:25;;;;;;;;;;;;;;;38.83;30.68;99663.81;5016035;28;881;-62
2021/08/04 09:29:00;;;;;;;;;;;;;;;38.53;30.48;99668.78;5015773;28;951;-62
2021/08/04 09:31:44;;;;;;;;;;;;;;;38.49;30.52;99663.44;5015772;28;878;-62
2021/08/04 09:34:29;;;;;;;;;;;;;;;38.37;29.81;99657.47;5015620;28;786;-63
2021/08/04 09:37:09;;;;;;;;;;;;;;;38.24;29.39;99657.91;5015586;28;1906;-63
2021/08/04 09:39:37;;;;;;;;;;;;;;;38.30;30.02;99649.72;5015562;28;826;-62
2021/08/04 09:42:03;;;;;;;;;;;;;;;37.99;30.33;99647.28;5015537;28;839;-63
2021/08/04 09:44:31;;;;;;;;;;;;;;;38.16;30.87;99655.13;5015429;28;811;-62
2021/08/04 09:47:11;;;;;;;;;;;;;;;38.29;29.89;99648.19;5015463;28;837;-62
2021/08/04 09:49:41;;;;;;;;;;;;;;;37.89;29.98;99640.69;5015296;28;866;-62
2021/08/04 09:52:08;;;;;;;;;;;;;;;37.71;30.49;99639.25;5015367;28;810;-62
2021/08/04 09:54:39;;;;;;;;;;;;;;;37.33;30.41;99635.50;5015315;28;893;-62
2021/08/04 09:57:06;;;;;;;;;;;;;;;37.08;31.22;99632.69;5013891;28;1204;-62
2021/08/04 09:59:32;;;;;;;;;;;;;;;36.99;30.55;99636.28;5015203;28;881;-62
2021/08/04 10:01:59;;;;;;;;;;;;;;;37.05;30.66;99625.25;5015081;28;814;-62
2021/08/04 10:04:26;;;;;;;;;;;;;;;36.79;31.92;99633.22;5015072;28;921;-62
2021/08/04 10:07:13;;;;;;;;;;;;;;;36.62;31.42;99618.81;5015029;28;878;-62
2021/08/04 10:09:41;;;;;;;;;;;;;;;36.41;33.28;99624.19;5014946;28;881;-62
2021/08/04 10:12:09;;;;;;;;;;;;;;;36.36;33.69;99620.19;5014822;28;984;-62
2021/08/04 10:14:36;;;;;;;;;;;;;;;36.39;34.02;99614.03;5013649;28;1335;-62
2021/08/04 10:17:04;;;;;;;;;;;;;;;36.26;34.01;99622.22;5014663;28;1399;-63
2021/08/04 10:19:31;;;;;;;;;;;;;;;35.92;33.90;99612.84;5014835;28;827;-63
2021/08/04 10:21:57;;;;;;;;;;;;;;;35.96;34.47;99606.69;5014748;28;847;-63
2021/08/04 10:24:24;;;;;;;;;;;;;;;36.01;33.38;99599.19;5014708;28;815;-62
2021/08/04 10:26:50;;;;;;;;;;;;;;;35.96;33.68;99598.06;5014904;28;862;-63
2021/08/04 10:29:18;;;;;;;;;;;;;;;36.24;33.95;99605.53;5014685;28;893;-63
2021/08/04 10:31:47;;;;;;;;;;;;;;;36.36;33.23;99602.91;5013888;28;904;-63
2021/08/04 10:34:13;;;;;;;;;;;;;;;36.37;33.92;99604.47;5015128;28;783;-62
2021/08/04 10:36:43;;;;;;;;;;;;;;;36.47;33.56;99595.94;5014380;28;2003;-62
2021/08/04 10:39:14;;;;;;;;;;;;;;;36.44;32.68;99589.22;5014507;28;873;-63
2021/08/04 10:41:58;;;;;;;;;;;;;;;36.42;33.30;99594.81;5014473;28;811;-62
2021/08/04 10:44:25;;;;;;;;;;;;;;;36.31;33.25;99589.56;5014565;28;819;-62
2021/08/04 10:46:52;;;;;;;;;;;;;;;36.25;33.36;99589.03;5014668;28;918;-63
2021/08/04 10:49:21;;;;;;;;;;;;;;;36.22;33.38;99590.22;5014314;28;858;-63
2021/08/04 10:52:00;;;;;;;;;;;;;;;35.98;33.68;99583.88;5014349;28;845;-62
2021/08/04 10:54:30;;;;;;;;;;;;;;;35.96;33.76;99572.19;5014162;28;830;-62
2021/08/04 10:56:56;;;;;;;;;;;;;;;35.75;33.70;99570.41;5014063;28;1951;-63
2021/08/04 10:59:26;;;;;;;;;;;;;;;35.70;34.32;99571.44;5014137;28;810;-63
2021/08/04 11:01:55;;;;;;;;;;;;;;;35.73;35.04;99569.47;5014199;28;826;-62
2021/08/04 11:04:27;;;;;;;;;;;;;;;35.76;33.49;99542.44;5014258;28;846;-62
2021/08/04 11:07:09;;;;;;;;;;;;;;;35.98;34.13;99566.63;5013939;28;886;-62
2021/08/04 11:09:37;;;;;;;;;;;;;;;35.95;33.68;99565.69;5014041;28;876;-63
2021/08/04 11:12:05;;;;;;;;;;;;;;;36.10;34.00;99572.63;5014159;28;798;-62
2021/08/04 11:14:42;;;;;;;;;;;;;;;36.13;33.41;99569.38;5014074;28;907;-63
2021/08/04 11:17:09;;;;;;;;;;;;;;;36.10;32.73;99579.16;4974748;28;866;-63
2021/08/04 11:19:56;;;;;;;;;;;;;;;36.18;33.12;99573.38;4974789;28;831;-62
2021/08/04 11:22:26;;;;;;;;;;;;;;;36.24;32.87;99565.25;4970683;28;1111;-62
2021/08/04 11:25:04;;;;;;;;;;;;;;;36.11;32.94;99563.44;4974621;28;811;-63
2021/08/04 11:27:35;;;;;;;;;;;;;;;36.16;32.60;99562.44;4974627;28;807;-63
2021/08/04 11:30:02;;;;;;;;;;;;;;;36.56;33.00;99554.97;4974531;28;890;-62
2021/08/04 11:32:30;;;;;;;;;;;;;;;36.59;31.99;99545.91;4974464;28;963;-62
2021/08/04 11:34:57;;;;;;;;;;;;;;;36.48;32.01;99548.53;4974348;28;1906;-62
2021/08/04 11:37:27;;;;;;;;;;;;;;;36.53;32.84;99559.00;4974366;28;882;-63
2021/08/04 11:40:01;;;;;;;;;;;;;;;36.60;31.66;99552.44;4974270;28;835;-62
2021/08/04 11:42:28;;;;;;;;;;;;;;;36.79;32.79;99549.72;4974323;28;855;-63
2021/08/04 11:45:02;;;;;;;;;;;;;;;37.01;31.82;99550.03;4973485;28;838;-63
2021/08/04 11:47:29;;;;;;;;;;;;;;;36.90;32.35;99550.56;4974224;28;878;-63
2021/08/04 11:49:57;;;;;;;;;;;;;;;37.08;31.89;99546.28;4974130;28;850;-62
2021/08/04 11:52:25;;;;;;;;;;;;;;;37.29;31.42;99545.84;4974033;28;887;-63
2021/08/04 11:55:05;;;;;;;;;;;;;;;37.10;31.91;99548.59;4973915;28;1859;-62
2021/08/04 11:57:36;;;;;;;;;;;;;;;37.17;31.68;99539.88;4974055;28;811;-63
2021/08/04 12:00:02;;;;;;;;;;;;;;;37.40;31.40;99535.88;4973933;28;898;-63
2021/08/04 12:02:33;;;;;;;;;;;;;;;37.51;31.56;99535.34;4973930;28;881;-62
2021/08/04 12:05:00;;;;;;;;;;;;;;;37.75;31.54;99525.00;4972709;28;827;-63
2021/08/04 12:07:28;;;;;;;;;;;;;;;37.61;30.57;99537.53;4973842;28;795;-62
2021/08/04 12:09:58;;;;;;;;;;;;;;;37.45;30.81;99536.97;4973713;28;803;-63
2021/08/04 12:12:31;;;;;;;;;;;;;;;37.60;31.27;99531.03;4973679;28;791;-61
2021/08/04 12:14:58;;;;;;;;;;;;;;;37.38;31.23;99532.84;4978481;28;1902;-64
2021/08/04 12:17:42;;;;;;;;;;;;;;;37.47;31.67;99534.25;5012701;28;803;-60
2021/08/04 12:20:16;;;;;;;;;;;;;;;37.65;32.34;99537.88;5012621;28;917;-60
2021/08/04 12:22:43;;;;;;;;;;;;;;;37.84;32.63;99526.41;5012580;28;870;-61
2021/08/04 12:25:15;;;;;;;;;;;;;;;37.80;32.79;99526.09;5012492;28;873;-60
2021/08/04 12:27:44;;;;;;;;;;;;;;;37.72;32.85;99528.31;5012386;28;890;-60
2021/08/04 12:30:13;;;;;;;;;;;;;;;37.44;32.65;99518.94;5012394;28;867;-61
2021/08/04 12:32:49;;;;;;;;;;;;;;;37.25;33.19;99513.06;5012383;28;834;-61
2021/08/04 12:35:21;;;;;;;;;;;;;;;37.47;32.64;99511.97;5012248;28;1878;-61
2021/08/04 12:37:47;;;;;;;;;;;;;;;37.89;32.66;99513.06;5011171;28;1188;-61
2021/08/04 12:40:14;;;;;;;;;;;;;;;38.05;32.29;99508.56;5012360;28;814;-60
2021/08/04 12:42:41;;;;;;;;;;;;;;;37.71;32.68;99500.88;5012884;28;815;-63
2021/08/04 12:45:27;;;;;;;;;;;;;;;37.45;33.21;99502.38;5012347;28;869;-63
2021/08/04 12:47:58;;;;;;;;;;;;;;;37.19;34.29;99504.69;5012116;28;938;-63
2021/08/04 12:50:27;;;;;;;;;;;;;;;36.87;34.51;99508.56;5010911;28;1188;-62
2021/08/04 12:52:54;;;;;;;;;;;;;;;36.88;35.42;99498.56;5012199;28;842;-62
2021/08/04 12:55:21;;;;;;;;;;;;;;;36.65;35.47;99493.84;5011799;28;1940;-63
2021/08/04 12:58:00;;;;;;;;;;;;;;;36.13;35.65;99494.59;5012059;28;894;-63
2021/08/04 13:00:30;;;;;;;;;;;;;;;35.49;37.12;99488.41;5012027;28;898;-63
2021/08/04 13:02:57;;;;;;;;;;;;;;;35.16;37.93;99482.69;5011974;28;806;-62
2021/08/04 13:05:24;;;;;;;;;;;;;;;34.69;38.02;99487.09;5011981;28;822;-62
2021/08/04 13:07:52;;;;;;;;;;;;;;;34.45;39.33;99468.41;5011792;28;775;-62
2021/08/04 13:10:35;;;;;;;;;;;;;;;35.16;38.67;99467.53;5011854;28;890;-62
2021/08/04 13:13:03;;;;;;;;;;;;;;;35.66;37.17;99463.97;5012038;28;803;-62
2021/08/04 13:15:53;;;;;;;;;;;;;;;35.88;36.95;99468.75;5011684;28;2013;-62
2021/08/04 13:18:21;;;;;;;;;;;;;;;36.00;36.43;99466.16;5010479;28;1322;-63
2021/08/04 13:20:47;;;;;;;;;;;;;;;35.81;37.06;99460.19;5012053;28;890;-62